Time;durP1;ratioP1;P1;durP2;ratioP2;P2;SDS_P1;SDS_P2;PMS_P1;PMS_P2;Temp;Humidity;BMP_temperature;BMP_pressure;BME280_temperature;BME280_humidity;BME280_pressure;Samples;Min_cycle;Max_cycle;Signal;HPM_P1;HPM_P2
2021/03/21 00:00:43;;;;;;;49.85;27.73;;;7.00;99.90;;;;;;5112331;27;20468;-56
2021/03/21 00:03:09;;;;;;;46.13;26.95;;;6.90;99.90;;;;;;5109827;27;20019;-54
2021/03/21 00:05:35;;;;;;;46.38;27.42;;;6.90;99.90;;;;;;5104802;27;20026;-54
2021/03/21 00:08:03;;;;;;;49.80;28.25;;;6.90;99.90;;;;;;5107999;28;20028;-56
2021/03/21 00:10:32;;;;;;;45.47;26.52;;;6.90;99.90;;;;;;5105402;27;20031;-54
2021/03/21 00:12:58;;;;;;;46.65;29.67;;;6.80;99.90;;;;;;5107633;27;20397;-57
2021/03/21 00:15:24;;;;;;;50.72;30.73;;;6.90;99.90;;;;;;5103799;27;20486;-56
2021/03/21 00:17:50;;;;;;;53.75;31.02;;;6.90;99.90;;;;;;5113553;27;20416;-59
2021/03/21 00:20:19;;;;;;;56.78;32.25;;;6.90;99.90;;;;;;5120147;27;20469;-57
2021/03/21 00:22:44;;;;;;;56.00;31.90;;;6.80;99.90;;;;;;5126079;27;20065;-53
2021/03/21 00:25:13;;;;;;;58.17;32.22;;;6.80;99.90;;;;;;5110187;27;20431;-54
2021/03/21 00:27:39;;;;;;;53.42;31.30;;;6.80;99.90;;;;;;5109906;27;20028;-58
2021/03/21 00:30:08;;;;;;;57.90;31.15;;;6.80;99.90;;;;;;5120456;27;20023;-56
2021/03/21 00:32:33;;;;;;;59.10;34.50;;;6.80;99.90;;;;;;5118201;27;20502;-53
2021/03/21 00:34:59;;;;;;;57.00;32.28;;;6.90;99.90;;;;;;5111897;27;20031;-55
2021/03/21 00:37:25;;;;;;;53.25;31.42;;;6.80;99.90;;;;;;5111457;27;20477;-56
2021/03/21 00:39:50;;;;;;;54.90;33.15;;;6.90;99.90;;;;;;5110356;27;20546;-55
2021/03/21 00:42:16;;;;;;;48.28;29.67;;;6.90;99.90;;;;;;5111444;27;20435;-58
2021/03/21 00:44:41;;;;;;;53.58;32.25;;;6.90;99.90;;;;;;5112234;27;20031;-54
2021/03/21 00:47:07;;;;;;;54.50;31.45;;;6.90;99.90;;;;;;5117890;27;20033;-57
2021/03/21 00:49:32;;;;;;;47.38;28.70;;;6.90;99.90;;;;;;5109429;27;20457;-56
2021/03/21 00:51:58;;;;;;;51.30;30.33;;;6.90;99.90;;;;;;5105812;27;20028;-57
2021/03/21 00:54:24;;;;;;;52.10;29.42;;;6.90;99.90;;;;;;5113725;27;20098;-57
2021/03/21 00:56:49;;;;;;;50.42;30.50;;;6.80;99.90;;;;;;5115635;27;20028;-57
2021/03/21 00:59:15;;;;;;;52.75;30.52;;;6.80;99.90;;;;;;5118691;27;20027;-59
2021/03/21 01:01:40;;;;;;;50.83;28.88;;;6.80;99.90;;;;;;5127738;27;20377;-58
2021/03/21 01:04:06;;;;;;;51.45;31.05;;;6.70;99.90;;;;;;5110970;28;20032;-57
2021/03/21 01:06:32;;;;;;;52.22;31.23;;;6.70;99.90;;;;;;5115605;27;20045;-56
2021/03/21 01:09:03;;;;;;;54.85;29.15;;;6.70;99.90;;;;;;5113990;28;20382;-54
2021/03/21 01:11:32;;;;;;;49.05;26.27;;;6.70;99.90;;;;;;5110282;28;20027;-54
2021/03/21 01:13:58;;;;;;;44.17;26.95;;;6.70;99.90;;;;;;5107095;28;20031;-54
2021/03/21 01:16:28;;;;;;;38.90;24.95;;;6.60;99.90;;;;;;5110545;28;20122;-52
2021/03/21 01:18:54;;;;;;;45.30;25.10;;;6.60;99.90;;;;;;5110803;28;20336;-55
2021/03/21 01:21:23;;;;;;;42.80;24.42;;;6.60;99.90;;;;;;5113850;28;20447;-56
2021/03/21 01:23:49;;;;;;;44.97;24.67;;;6.60;99.90;;;;;;5122507;28;20016;-56
2021/03/21 01:26:18;;;;;;;41.30;24.92;;;6.50;99.90;;;;;;5113944;28;20604;-55
2021/03/21 01:28:45;;;;;;;46.42;25.88;;;6.40;99.90;;;;;;5110389;28;20019;-56
2021/03/21 01:31:14;;;;;;;46.97;26.10;;;6.40;99.90;;;;;;5110191;28;20397;-57
2021/03/21 01:33:40;;;;;;;44.13;26.42;;;6.40;99.90;;;;;;5110123;28;20063;-56
2021/03/21 01:36:14;;;;;;;45.50;27.15;;;6.30;99.90;;;;;;5111202;28;20055;-55
2021/03/21 01:38:40;;;;;;;44.78;25.83;;;6.20;99.90;;;;;;5110461;28;20036;-58
2021/03/21 01:41:12;;;;;;;50.90;27.17;;;6.20;99.90;;;;;;5110547;28;20039;-54
2021/03/21 01:43:41;;;;;;;49.25;27.77;;;6.10;99.90;;;;;;5111066;28;20022;-55
2021/03/21 01:46:07;;;;;;;46.53;27.23;;;6.10;99.90;;;;;;5110087;28;20261;-55
2021/03/21 01:48:50;;;;;;;45.40;27.42;;;6.10;99.90;;;;;;5118435;28;20480;-56
2021/03/21 01:51:32;;;;;;;47.10;27.77;;;6.10;99.90;;;;;;5129990;28;20100;-54
2021/03/21 01:54:07;;;;;;;49.83;28.02;;;6.00;99.90;;;;;;5109273;28;20032;-56
2021/03/21 01:56:35;;;;;;;53.72;28.80;;;6.10;99.90;;;;;;5113218;27;20055;-55
2021/03/21 01:59:12;;;;;;;48.60;27.75;;;6.00;99.90;;;;;;5114113;27;20036;-52
2021/03/21 02:01:38;;;;;;;49.42;27.85;;;6.00;99.90;;;;;;5113108;27;20027;-57
2021/03/21 02:04:05;;;;;;;48.85;26.98;;;6.00;99.90;;;;;;5100444;27;20086;-55
2021/03/21 02:06:36;;;;;;;52.10;26.98;;;6.00;99.90;;;;;;5128998;27;20027;-55
2021/03/21 02:09:26;;;;;;;45.72;26.40;;;6.00;99.90;;;;;;5118486;27;20028;-59
2021/03/21 02:12:27;;;;;;;48.53;26.52;;;6.00;99.90;;;;;;5110170;27;20048;-53
2021/03/21 02:15:23;;;;;;;46.65;25.50;;;5.90;99.90;;;;;;5061023;27;20044;-54
2021/03/21 02:18:03;;;;;;;44.17;24.95;;;5.90;99.90;;;;;;5113476;27;20027;-53
2021/03/21 02:20:49;;;;;;;44.25;25.00;;;5.90;99.90;;;;;;5118097;27;20057;-54
2021/03/21 02:23:46;;;;;;;45.75;25.35;;;5.90;99.90;;;;;;5110648;27;20400;-54
2021/03/21 02:26:26;;;;;;;43.78;24.80;;;5.90;99.90;;;;;;5123756;27;20493;-56
2021/03/21 02:29:22;;;;;;;44.25;25.23;;;5.90;99.90;;;;;;5121536;27;20260;-52
2021/03/21 02:31:59;;;;;;;47.35;26.02;;;5.80;99.90;;;;;;5119838;27;20059;-56
2021/03/21 02:34:41;;;;;;;49.55;28.25;;;5.80;99.90;;;;;;5112850;27;20103;-51
2021/03/21 02:37:31;;;;;;;49.75;27.42;;;5.70;99.90;;;;;;5112682;27;20024;-52
2021/03/21 02:40:20;;;;;;;48.13;26.33;;;5.70;99.90;;;;;;5091953;28;20077;-53
2021/03/21 02:42:56;;;;;;;49.28;25.48;;;5.70;99.90;;;;;;5101400;27;20027;-52
2021/03/21 02:45:26;;;;;;;48.85;25.85;;;5.70;99.90;;;;;;5119522;27;20127;-54
2021/03/21 02:47:54;;;;;;;49.33;25.10;;;5.80;99.90;;;;;;5133039;27;20035;-55
2021/03/21 02:50:31;;;;;;;41.25;23.70;;;5.80;99.90;;;;;;5119776;27;20316;-54
2021/03/21 02:53:02;;;;;;;42.45;24.45;;;5.80;99.90;;;;;;5114843;27;20035;-55
2021/03/21 02:55:38;;;;;;;42.22;23.75;;;5.80;99.90;;;;;;5132666;27;20054;-55
2021/03/21 02:58:09;;;;;;;40.15;22.42;;;5.80;99.90;;;;;;5132721;27;20080;-56
2021/03/21 03:00:39;;;;;;;40.75;22.70;;;5.80;99.90;;;;;;5109109;27;20040;-54
2021/03/21 03:03:08;;;;;;;38.65;21.52;;;5.80;99.90;;;;;;5111913;27;20502;-58
2021/03/21 03:05:43;;;;;;;41.22;21.38;;;5.80;99.90;;;;;;5122509;27;20034;-53
2021/03/21 03:08:43;;;;;;;38.60;20.63;;;5.80;99.90;;;;;;5117662;27;20038;-56
2021/03/21 03:11:18;;;;;;;35.25;19.65;;;5.80;99.90;;;;;;5072956;27;20390;-57
2021/03/21 03:14:00;;;;;;;40.08;21.90;;;5.80;99.90;;;;;;5121425;27;20384;-56
2021/03/21 03:16:35;;;;;;;39.38;22.25;;;5.70;99.90;;;;;;5110960;27;20044;-56
2021/03/21 03:19:41;;;;;;;35.30;19.38;;;5.70;99.90;;;;;;5108558;27;20473;-56
2021/03/21 03:22:39;;;;;;;35.67;18.45;;;5.70;99.90;;;;;;5109869;27;20473;-54
2021/03/21 03:25:42;;;;;;;39.22;20.13;;;5.80;99.90;;;;;;5108784;28;20085;-56
2021/03/21 03:28:09;;;;;;;37.33;20.65;;;5.70;99.90;;;;;;5112045;27;20153;-57
2021/03/21 03:31:20;;;;;;;38.85;20.45;;;5.70;99.90;;;;;;5112197;28;20028;-56
2021/03/21 03:33:45;;;;;;;35.53;19.02;;;5.80;99.90;;;;;;5111609;27;20042;-54
2021/03/21 03:36:14;;;;;;;39.63;20.80;;;5.80;99.90;;;;;;5112707;28;20031;-53
2021/03/21 03:38:42;;;;;;;40.80;22.17;;;5.80;99.90;;;;;;5114847;27;20023;-55
2021/03/21 03:41:17;;;;;;;43.97;22.27;;;5.80;99.90;;;;;;5118882;27;20031;-53
2021/03/21 03:44:07;;;;;;;37.47;20.83;;;5.80;99.90;;;;;;5112137;27;20404;-55
2021/03/21 03:46:42;;;;;;;40.20;22.95;;;5.80;99.90;;;;;;5111110;28;20015;-55
2021/03/21 03:49:27;;;;;;;43.05;22.38;;;5.80;99.90;;;;;;5112115;27;20065;-56
2021/03/21 03:52:23;;;;;;;45.45;24.58;;;5.80;99.90;;;;;;5093202;28;20032;-55
2021/03/21 03:55:01;;;;;;;42.40;22.88;;;5.80;99.90;;;;;;5113143;27;20027;-55
2021/03/21 03:57:48;;;;;;;44.70;23.70;;;5.80;99.90;;;;;;5124225;27;20028;-54
2021/03/21 04:00:30;;;;;;;45.47;23.67;;;5.80;99.90;;;;;;5110968;27;20020;-56
2021/03/21 04:03:08;;;;;;;43.78;24.30;;;5.80;99.90;;;;;;5111759;28;20104;-53
2021/03/21 04:05:58;;;;;;;43.58;23.63;;;5.80;99.90;;;;;;5111973;27;20023;-54
2021/03/21 04:08:39;;;;;;;46.53;24.58;;;5.80;99.90;;;;;;5114710;27;20106;-54
2021/03/21 04:11:24;;;;;;;45.13;24.33;;;5.80;99.90;;;;;;5125213;27;20032;-56
2021/03/21 04:14:08;;;;;;;42.67;23.33;;;5.80;99.90;;;;;;5107034;27;20447;-55
2021/03/21 04:16:39;;;;;;;44.80;24.13;;;5.80;99.90;;;;;;5108879;27;20027;-55
2021/03/21 04:19:06;;;;;;;43.92;23.83;;;5.80;99.90;;;;;;5108276;28;20028;-52
2021/03/21 04:21:40;;;;;;;44.28;24.15;;;5.90;99.90;;;;;;5108558;27;20123;-56
2021/03/21 04:24:26;;;;;;;48.28;24.80;;;5.90;99.90;;;;;;5106102;27;20051;-55
2021/03/21 04:27:02;;;;;;;45.55;23.88;;;5.80;99.90;;;;;;5090133;27;20551;-55
2021/03/21 04:29:54;;;;;;;43.47;23.25;;;5.80;99.90;;;;;;5105717;27;20062;-53
2021/03/21 04:32:43;;;;;;;47.42;24.00;;;5.80;99.90;;;;;;5100466;27;20043;-54
2021/03/21 04:35:26;;;;;;;43.78;21.95;;;5.90;99.90;;;;;;5110602;28;20028;-55
2021/03/21 04:38:06;;;;;;;42.60;20.80;;;5.90;99.90;;;;;;5110042;27;20439;-55
2021/03/21 04:40:31;;;;;;;38.63;20.27;;;5.90;99.90;;;;;;5119363;27;20023;-55
2021/03/21 04:43:02;;;;;;;37.65;19.58;;;5.90;99.90;;;;;;5113860;27;20088;-51
2021/03/21 04:45:34;;;;;;;40.85;20.80;;;5.90;99.90;;;;;;5100180;27;20312;-55
2021/03/21 04:48:05;;;;;;;38.03;19.35;;;5.80;99.90;;;;;;5110913;27;20055;-52
2021/03/21 04:50:32;;;;;;;40.03;19.70;;;5.80;99.90;;;;;;5113606;27;20030;-53
2021/03/21 04:53:10;;;;;;;37.30;19.25;;;5.80;99.90;;;;;;5127895;27;20027;-52
2021/03/21 04:55:41;;;;;;;38.85;20.75;;;5.80;99.90;;;;;;5127876;27;20058;-52
2021/03/21 04:58:34;;;;;;;42.10;20.85;;;5.80;99.90;;;;;;5115628;27;20552;-54
2021/03/21 05:01:41;;;;;;;40.65;20.60;;;5.80;99.90;;;;;;5110938;28;20107;-53
2021/03/21 05:04:18;;;;;;;38.28;19.10;;;5.80;99.90;;;;;;5109280;28;20115;-56
2021/03/21 05:07:19;;;;;;;40.55;20.63;;;5.80;99.90;;;;;;5115033;27;21247;-56
2021/03/21 05:09:48;;;;;;;41.85;21.95;;;5.80;99.90;;;;;;5113341;28;20433;-56
2021/03/21 05:12:30;;;;;;;39.30;19.77;;;5.80;99.90;;;;;;5105871;28;20470;-55
2021/03/21 05:15:11;;;;;;;40.72;21.27;;;5.80;99.90;;;;;;5105276;28;20016;-56
2021/03/21 05:17:55;;;;;;;46.60;22.58;;;5.80;99.90;;;;;;5106203;28;20370;-53
2021/03/21 05:20:42;;;;;;;49.28;23.88;;;5.70;99.90;;;;;;5127318;28;20058;-55
2021/03/21 05:23:29;;;;;;;47.67;22.83;;;5.70;99.90;;;;;;5113482;28;20111;-56
2021/03/21 05:26:20;;;;;;;54.28;23.73;;;5.80;99.90;;;;;;5119371;28;20043;-53
2021/03/21 05:29:20;;;;;;;51.42;23.10;;;5.70;99.90;;;;;;5094205;28;20050;-53
2021/03/21 05:31:46;;;;;;;58.58;25.42;;;5.70;99.90;;;;;;5112119;28;20054;-52
2021/03/21 05:34:13;;;;;;;52.88;23.85;;;5.70;99.90;;;;;;5116428;27;20027;-55
2021/03/21 05:37:07;;;;;;;54.95;23.88;;;5.70;99.90;;;;;;5128239;27;20038;-56
2021/03/21 05:39:42;;;;;;;59.70;25.55;;;5.80;99.90;;;;;;5134059;27;20031;-53
2021/03/21 05:42:22;;;;;;;62.00;26.67;;;5.80;99.90;;;;;;5118309;27;20024;-56
2021/03/21 05:45:12;;;;;;;58.05;24.20;;;5.80;99.90;;;;;;5114748;27;20020;-55
2021/03/21 05:47:41;;;;;;;58.55;26.08;;;5.80;99.90;;;;;;5113719;27;20106;-53
2021/03/21 05:50:44;;;;;;;65.32;29.05;;;5.80;99.90;;;;;;5113031;27;20392;-52
2021/03/21 05:53:47;;;;;;;61.95;25.15;;;5.80;99.90;;;;;;5119904;27;20036;-56
2021/03/21 05:56:42;;;;;;;64.68;28.70;;;5.80;99.90;;;;;;5125741;27;20496;-55
2021/03/21 05:59:26;;;;;;;67.50;26.83;;;5.80;99.90;;;;;;5073828;28;20066;-56
2021/03/21 06:02:07;;;;;;;72.57;29.25;;;5.80;99.90;;;;;;5119040;27;20031;-56
2021/03/21 06:04:35;;;;;;;69.75;27.65;;;5.80;99.90;;;;;;5109883;27;20056;-56
2021/03/21 06:07:34;;;;;;;68.43;29.40;;;5.80;99.90;;;;;;5110368;27;20020;-56
2021/03/21 06:10:12;;;;;;;74.30;29.63;;;5.80;99.90;;;;;;5113828;27;20027;-54
2021/03/21 06:13:02;;;;;;;72.32;27.60;;;5.80;99.90;;;;;;5102425;27;20024;-56
2021/03/21 06:15:43;;;;;;;75.80;29.48;;;5.80;99.90;;;;;;5110306;27;20031;-55
2021/03/21 06:18:19;;;;;;;66.30;28.33;;;5.80;99.90;;;;;;5107740;27;20341;-56
2021/03/21 06:21:22;;;;;;;73.20;29.33;;;5.80;99.90;;;;;;5116183;27;20042;-57
2021/03/21 06:24:29;;;;;;;75.00;28.52;;;5.80;99.90;;;;;;5111062;27;20020;-55
2021/03/21 06:27:05;;;;;;;72.47;28.05;;;5.90;99.90;;;;;;5009898;28;20136;-53
2021/03/21 06:29:59;;;;;;;68.00;27.33;;;5.90;99.90;;;;;;5095240;27;20046;-55
2021/03/21 06:32:35;;;;;;;72.30;29.40;;;5.90;99.90;;;;;;5125434;27;20054;-54
2021/03/21 06:35:42;;;;;;;73.18;28.08;;;5.90;99.90;;;;;;5124890;27;20508;-52
2021/03/21 06:38:41;;;;;;;82.90;31.25;;;5.90;99.90;;;;;;5113319;27;20127;-57
2021/03/21 06:41:24;;;;;;;80.05;31.20;;;5.90;99.90;;;;;;5107971;27;20389;-57
2021/03/21 06:44:11;;;;;;;80.88;31.70;;;5.90;99.90;;;;;;5106397;27;20056;-54
2021/03/21 06:46:43;;;;;;;82.88;30.55;;;5.90;99.90;;;;;;5110996;27;20032;-56
2021/03/21 06:49:33;;;;;;;83.43;32.97;;;6.00;99.90;;;;;;5113414;27;20523;-54
2021/03/21 06:52:16;;;;;;;86.28;31.38;;;6.00;99.90;;;;;;5103818;27;20468;-53
2021/03/21 06:54:49;;;;;;;77.90;30.98;;;6.00;99.90;;;;;;5111877;27;20536;-50
2021/03/21 06:57:41;;;;;;;61.90;23.60;;;6.00;99.90;;;;;;5106527;27;20490;-51
2021/03/21 07:00:44;;;;;;;81.60;31.00;;;6.00;99.90;;;;;;5116538;27;20023;-53
2021/03/21 07:03:32;;;;;;;74.90;31.08;;;6.00;99.90;;;;;;5107323;27;20385;-51
2021/03/21 07:06:29;;;;;;;78.72;30.38;;;6.10;99.90;;;;;;5104921;27;20058;-53
2021/03/21 07:09:08;;;;;;;72.75;28.67;;;6.10;99.90;;;;;;5121241;27;20041;-55
2021/03/21 07:12:11;;;;;;;74.18;30.15;;;6.10;99.90;;;;;;5113382;27;20028;-53
2021/03/21 07:14:43;;;;;;;71.40;29.65;;;6.20;99.90;;;;;;5105101;27;20024;-53
2021/03/21 07:17:20;;;;;;;65.47;27.83;;;6.20;99.90;;;;;;5106541;27;20050;-52
2021/03/21 07:20:27;;;;;;;62.30;27.58;;;6.20;99.90;;;;;;5104698;28;20029;-51
2021/03/21 07:23:01;;;;;;;63.50;26.58;;;6.30;99.90;;;;;;5107503;27;20489;-52
2021/03/21 07:25:43;;;;;;;;;;;6.30;99.90;;;;;;5105574;27;20035;-50
2021/03/21 07:28:46;;;;;;;64.55;25.20;;;6.20;99.90;;;;;;5106150;27;21162;-52
2021/03/21 07:31:29;;;;;;;68.68;28.15;;;6.30;99.90;;;;;;5107044;27;20058;-49
2021/03/21 07:34:12;;;;;;;65.35;28.95;;;6.40;99.90;;;;;;5104415;27;20047;-52
2021/03/21 07:37:04;;;;;;;66.60;28.15;;;6.40;99.90;;;;;;5113234;27;20055;-49
2021/03/21 07:39:56;;;;;;;58.45;26.83;;;6.40;99.90;;;;;;5112994;27;20052;-49
2021/03/21 07:42:54;;;;;;;55.17;24.98;;;6.50;99.90;;;;;;5098442;27;20050;-53
2021/03/21 07:45:51;;;;;;;53.83;26.13;;;6.60;99.90;;;;;;5106908;27;20081;-49
2021/03/21 07:48:28;;;;;;;53.00;26.13;;;6.60;99.90;;;;;;5107138;28;20391;-53
2021/03/21 07:51:12;;;;;;;53.97;24.27;;;6.70;99.90;;;;;;5120551;27;20019;-52
2021/03/21 07:54:17;;;;;;;51.33;24.17;;;6.70;99.90;;;;;;5107868;28;20509;-51
2021/03/21 07:56:49;;;;;;;54.85;24.80;;;6.80;99.90;;;;;;5110185;27;20393;-52
2021/03/21 07:59:21;;;;;;;42.53;21.20;;;6.80;99.90;;;;;;5104241;27;20030;-52
2021/03/21 08:01:46;;;;;;;45.60;21.55;;;6.80;99.90;;;;;;5121054;27;20034;-51
2021/03/21 08:04:22;;;;;;;48.65;21.95;;;6.80;99.90;;;;;;5108168;27;20027;-55
2021/03/21 08:07:25;;;;;;;37.72;18.55;;;6.90;99.90;;;;;;5116047;27;20068;-55
2021/03/21 08:09:50;;;;;;;40.60;19.58;;;6.90;99.90;;;;;;5093518;27;20135;-52
2021/03/21 08:12:39;;;;;;;31.42;17.75;;;6.90;99.90;;;;;;5111090;28;20146;-49
2021/03/21 08:15:20;;;;;;;34.00;17.48;;;7.00;99.90;;;;;;5107435;27;20023;-49
2021/03/21 08:17:52;;;;;;;43.78;17.33;;;7.00;99.90;;;;;;5129402;27;20107;-53
2021/03/21 08:20:24;;;;;;;31.50;16.25;;;7.10;99.90;;;;;;5114524;27;20031;-50
2021/03/21 08:22:54;;;;;;;32.83;15.32;;;7.10;99.90;;;;;;5112841;27;20019;-49
2021/03/21 08:25:24;;;;;;;23.13;12.80;;;7.10;99.90;;;;;;5105628;28;20046;-52
2021/03/21 08:27:53;;;;;;;28.98;14.52;;;7.10;99.90;;;;;;5114498;27;20094;-53
2021/03/21 08:30:21;;;;;;;26.70;13.75;;;7.20;99.90;;;;;;5119720;27;20050;-51
2021/03/21 08:33:02;;;;;;;25.75;12.95;;;7.20;99.90;;;;;;5107616;27;20035;-49
2021/03/21 08:35:31;;;;;;;33.63;12.75;;;7.40;99.90;;;;;;5106553;27;20100;-56
2021/03/21 08:38:02;;;;;;;24.70;13.25;;;7.40;99.90;;;;;;5113630;27;20593;-52
2021/03/21 08:40:34;;;;;;;27.95;13.00;;;7.50;99.90;;;;;;5121111;27;20131;-49
2021/03/21 08:43:24;;;;;;;21.35;11.32;;;7.50;99.90;;;;;;5115268;27;20031;-49
2021/03/21 08:45:56;;;;;;;28.85;11.88;;;7.50;99.90;;;;;;5108627;27;20181;-55
2021/03/21 08:48:34;;;;;;;24.65;12.27;;;7.40;99.90;;;;;;5117374;27;20118;-49
2021/03/21 08:51:12;;;;;;;24.58;10.18;;;7.30;99.90;;;;;;5113840;27;20031;-50
2021/03/21 08:53:57;;;;;;;21.90;11.00;;;7.30;99.90;;;;;;5113552;27;20030;-49
2021/03/21 08:57:13;;;;;;;22.48;11.10;;;7.30;99.90;;;;;;5106616;27;20027;-50
2021/03/21 08:59:44;;;;;;;25.55;10.35;;;7.30;99.90;;;;;;5106270;27;20020;-49
2021/03/21 09:02:14;;;;;;;20.50;9.30;;;7.30;99.90;;;;;;5104850;27;20032;-50
2021/03/21 09:04:54;;;;;;;21.02;9.10;;;7.30;99.90;;;;;;5108255;28;20024;-54
2021/03/21 09:07:21;;;;;;;19.23;8.45;;;7.30;99.90;;;;;;5084280;28;20035;-52
2021/03/21 09:10:07;;;;;;;14.95;7.10;;;7.40;99.90;;;;;;5103234;28;20132;-51
2021/03/21 09:12:35;;;;;;;15.63;7.47;;;7.40;99.90;;;;;;5103240;28;20024;-50
2021/03/21 09:15:16;;;;;;;19.42;7.57;;;7.40;99.90;;;;;;5102326;28;20024;-51
2021/03/21 09:18:03;;;;;;;22.35;7.97;;;7.40;99.90;;;;;;5108410;28;20399;-52
2021/03/21 09:20:31;;;;;;;14.75;7.55;;;7.40;99.90;;;;;;5100869;28;20436;-51
2021/03/21 09:22:57;;;;;;;21.58;7.03;;;7.40;99.90;;;;;;5101527;28;20038;-53
2021/03/21 09:25:28;;;;;;;14.75;6.95;;;7.50;99.90;;;;;;5104507;28;20039;-50
2021/03/21 09:27:58;;;;;;;17.30;5.70;;;7.60;99.90;;;;;;5103500;28;20031;-53
2021/03/21 09:30:41;;;;;;;10.15;5.28;;;7.60;99.90;;;;;;5101673;28;20039;-53
2021/03/21 09:33:17;;;;;;;14.25;4.80;;;7.60;99.90;;;;;;5099858;28;20695;-52
2021/03/21 09:35:45;;;;;;;12.15;4.68;;;7.70;99.90;;;;;;5106634;28;20049;-53
2021/03/21 09:38:16;;;;;;;6.20;2.60;;;7.70;99.90;;;;;;5109551;28;20080;-51
2021/03/21 09:40:46;;;;;;;6.55;2.85;;;7.80;99.90;;;;;;5101527;28;20028;-49
2021/03/21 09:43:19;;;;;;;4.03;1.98;;;7.80;99.90;;;;;;5112876;28;20448;-52
2021/03/21 09:45:50;;;;;;;4.70;2.58;;;7.80;99.90;;;;;;5108514;28;20015;-54
2021/03/21 09:48:36;;;;;;;4.88;1.98;;;7.80;99.90;;;;;;5101794;28;20062;-51
2021/03/21 09:51:10;;;;;;;4.00;2.15;;;7.80;99.90;;;;;;5103844;28;20031;-52
2021/03/21 09:53:57;;;;;;;5.03;1.80;;;7.90;99.90;;;;;;5111660;28;20057;-53
2021/03/21 09:56:46;;;;;;;3.90;2.20;;;7.90;99.90;;;;;;5115574;28;20028;-52
2021/03/21 09:59:23;;;;;;;5.68;3.03;;;7.90;99.90;;;;;;5114030;28;20028;-53
2021/03/21 10:01:55;;;;;;;8.52;2.67;;;7.80;99.90;;;;;;5108682;28;20031;-53
2021/03/21 10:04:56;;;;;;;2.97;1.90;;;7.70;99.90;;;;;;5107052;28;20038;-51
2021/03/21 10:08:03;;;;;;;6.00;2.70;;;7.70;99.90;;;;;;5093412;28;20494;-49
2021/03/21 10:10:43;;;;;;;8.15;3.20;;;7.60;99.90;;;;;;5091048;28;20047;-52
2021/03/21 10:13:10;;;;;;;15.10;5.30;;;7.60;99.90;;;;;;5109968;28;20020;-52
2021/03/21 10:16:13;;;;;;;11.10;4.57;;;7.50;99.90;;;;;;5099093;28;20020;-49
2021/03/21 10:18:46;;;;;;;18.73;7.05;;;7.60;99.90;;;;;;5117822;27;20020;-52
2021/03/21 10:21:32;;;;;;;12.98;4.53;;;7.60;99.90;;;;;;5107027;27;20031;-52
2021/03/21 10:23:59;;;;;;;14.40;4.22;;;7.60;99.90;;;;;;5110930;27;20023;-49
2021/03/21 10:26:30;;;;;;;18.40;3.80;;;7.70;99.90;;;;;;5106742;27;20032;-48
2021/03/21 10:28:58;;;;;;;16.10;3.25;;;7.70;99.90;;;;;;5116493;27;20507;-51
2021/03/21 10:31:25;;;;;;;16.52;3.63;;;7.70;99.90;;;;;;5107673;27;20102;-49
2021/03/21 10:34:15;;;;;;;16.35;4.10;;;7.90;99.90;;;;;;5110920;27;20528;-53
2021/03/21 10:36:43;;;;;;;16.63;4.70;;;8.00;99.90;;;;;;5104715;27;20089;-49
2021/03/21 10:39:23;;;;;;;17.45;3.60;;;8.20;99.90;;;;;;5107349;27;20028;-55
2021/03/21 10:41:59;;;;;;;16.30;4.13;;;8.30;99.90;;;;;;5118201;27;20102;-49
2021/03/21 10:44:48;;;;;;;20.38;3.78;;;8.50;99.90;;;;;;5115049;27;20111;-51
2021/03/21 10:47:22;;;;;;;18.58;3.17;;;8.40;99.90;;;;;;5084229;28;20768;-49
2021/03/21 10:50:07;;;;;;;17.10;3.95;;;8.20;99.90;;;;;;5109269;27;20051;-53
2021/03/21 10:52:44;;;;;;;14.57;2.55;;;8.00;99.90;;;;;;5112117;27;20110;-50
2021/03/21 10:55:21;;;;;;;10.93;2.72;;;8.00;99.90;;;;;;5106343;27;20051;-50
2021/03/21 10:57:49;;;;;;;22.05;4.68;;;8.00;99.90;;;;;;5106603;27;20623;-54
2021/03/21 11:00:27;;;;;;;14.68;2.83;;;8.00;99.90;;;;;;5109283;28;20027;-51
2021/03/21 11:03:01;;;;;;;21.80;3.15;;;8.00;99.90;;;;;;5112202;27;20026;-50
2021/03/21 11:05:32;;;;;;;18.33;3.05;;;8.00;99.90;;;;;;5114816;27;20024;-51
2021/03/21 11:08:20;;;;;;;16.60;3.60;;;7.90;99.90;;;;;;5125242;27;20050;-49
2021/03/21 11:10:52;;;;;;;17.52;3.92;;;7.90;99.90;;;;;;5099160;27;20030;-52
2021/03/21 11:13:29;;;;;;;24.42;3.53;;;7.80;99.90;;;;;;5105034;27;20405;-53
2021/03/21 11:15:55;;;;;;;20.25;3.90;;;7.80;99.90;;;;;;5106134;27;20030;-49
2021/03/21 11:18:26;;;;;;;16.63;3.35;;;7.80;99.90;;;;;;5110632;27;20031;-50
2021/03/21 11:21:11;;;;;;;15.23;3.72;;;7.80;99.90;;;;;;5108402;27;20388;-53
2021/03/21 11:23:54;;;;;;;20.65;3.30;;;7.90;99.90;;;;;;5116668;27;20023;-51
2021/03/21 11:26:26;;;;;;;18.83;3.60;;;8.00;99.90;;;;;;5111470;27;20492;-53
2021/03/21 11:28:53;;;;;;;29.10;3.17;;;8.10;99.90;;;;;;5107926;27;20500;-53
2021/03/21 11:31:33;;;;;;;26.88;3.25;;;8.10;99.90;;;;;;5106507;27;20031;-53
2021/03/21 11:34:13;;;;;;;38.28;12.02;;;8.20;99.90;;;;;;5112264;27;20038;-50
2021/03/21 11:36:39;;;;;;;29.88;5.60;;;8.30;99.90;;;;;;5109630;27;20698;-53
2021/03/21 11:39:51;;;;;;;22.98;6.28;;;8.30;99.90;;;;;;5103803;27;20042;-57
2021/03/21 11:42:37;;;;;;;25.80;4.97;;;8.30;99.90;;;;;;5091175;27;20114;-54
2021/03/21 11:45:22;;;;;;;16.38;3.53;;;8.20;99.90;;;;;;5109804;27;20028;-53
2021/03/21 11:47:51;;;;;;;24.42;4.40;;;8.30;99.90;;;;;;5111176;27;20030;-49
2021/03/21 11:50:31;;;;;;;28.95;3.90;;;8.30;99.90;;;;;;5103189;27;20015;-51
2021/03/21 11:53:00;;;;;;;23.67;4.03;;;8.20;99.90;;;;;;5104714;27;20020;-51
2021/03/21 11:55:31;;;;;;;19.70;4.15;;;8.10;99.90;;;;;;5106976;27;20032;-50
2021/03/21 11:58:04;;;;;;;24.33;4.00;;;8.10;99.90;;;;;;5114299;27;20110;-53
2021/03/21 12:00:38;;;;;;;29.15;5.93;;;8.00;99.90;;;;;;5108496;27;20397;-49
2021/03/21 12:03:07;;;;;;;;;;;8.00;99.90;;;;;;5109641;28;20098;-54
2021/03/21 12:05:36;;;;;;;27.38;4.65;;;8.00;99.90;;;;;;5110566;27;20006;-50
2021/03/21 12:08:21;;;;;;;28.05;4.40;;;8.10;99.90;;;;;;5106935;27;20019;-51
2021/03/21 12:10:48;;;;;;;21.17;3.40;;;8.20;99.90;;;;;;5105144;27;20034;-53
2021/03/21 12:13:34;;;;;;;30.77;4.57;;;8.40;99.90;;;;;;5107778;27;20023;-54
2021/03/21 12:16:04;;;;;;;30.35;3.75;;;8.60;99.90;;;;;;5106818;27;20043;-54
2021/03/21 12:18:34;;;;;;;22.05;3.60;;;8.70;99.90;;;;;;5101392;27;20061;-53
2021/03/21 12:21:10;;;;;;;32.08;5.25;;;8.90;99.90;;;;;;5106200;27;20016;-51
2021/03/21 12:23:42;;;;;;;34.50;5.30;;;8.80;99.90;;;;;;5104980;27;20028;-53
2021/03/21 12:26:15;;;;;;;31.65;4.70;;;8.70;99.90;;;;;;5105928;27;20039;-49
2021/03/21 12:29:25;;;;;;;33.05;6.45;;;8.60;99.90;;;;;;5113060;27;20055;-55
2021/03/21 12:31:56;;;;;;;33.15;5.13;;;8.70;99.90;;;;;;5082489;27;20100;-51
2021/03/21 12:34:41;;;;;;;30.75;5.65;;;8.70;99.90;;;;;;5107082;28;20464;-51
2021/03/21 12:37:14;;;;;;;38.90;6.57;;;8.70;99.90;;;;;;5106476;27;20082;-48
2021/03/21 12:39:47;;;;;;;32.95;7.72;;;8.70;99.90;;;;;;5105671;27;20028;-53
2021/03/21 12:42:25;;;;;;;41.55;9.93;;;8.60;99.90;;;;;;5107327;28;20758;-50
2021/03/21 12:45:09;;;;;;;29.92;7.70;;;8.50;99.90;;;;;;5107153;27;20439;-52
2021/03/21 12:47:38;;;;;;;41.20;7.72;;;8.60;99.90;;;;;;5105261;28;20022;-52
2021/03/21 12:50:37;;;;;;;36.15;5.45;;;8.60;99.90;;;;;;5104728;28;20047;-54
2021/03/21 12:53:30;;;;;;;24.88;5.78;;;8.60;99.90;;;;;;5105851;27;20111;-53
2021/03/21 12:56:03;;;;;;;32.22;7.03;;;8.60;99.90;;;;;;5109269;27;20023;-51
2021/03/21 12:58:29;;;;;;;37.13;6.00;;;8.70;99.90;;;;;;5110687;27;20062;-55
2021/03/21 13:00:56;;;;;;;37.97;6.55;;;8.80;99.90;;;;;;5104618;28;20059;-54
2021/03/21 13:03:33;;;;;;;40.08;7.05;;;8.90;99.90;;;;;;5108156;28;20382;-52
2021/03/21 13:06:01;;;;;;;45.03;5.65;;;8.90;99.90;;;;;;5114568;27;20049;-50
2021/03/21 13:08:27;;;;;;;33.10;6.10;;;8.80;99.90;;;;;;5103296;27;20451;-52
2021/03/21 13:10:54;;;;;;;39.30;7.43;;;8.80;99.90;;;;;;5103829;28;20068;-53
2021/03/21 13:13:20;;;;;;;35.15;5.78;;;8.70;99.90;;;;;;5114610;27;20016;-54
2021/03/21 13:15:46;;;;;;;31.77;5.10;;;8.70;99.90;;;;;;5110530;28;20407;-55
2021/03/21 13:18:21;;;;;;;35.35;5.18;;;8.70;99.90;;;;;;5116964;28;20043;-53
2021/03/21 13:20:49;;;;;;;43.83;10.93;;;8.70;99.90;;;;;;5105967;28;20393;-54
2021/03/21 13:23:15;;;;;;;35.00;5.45;;;8.70;99.90;;;;;;5107298;28;20024;-53
2021/03/21 13:25:41;;;;;;;33.90;6.05;;;8.60;99.90;;;;;;5100000;28;20055;-54
2021/03/21 13:28:08;;;;;;;48.70;6.07;;;8.70;99.90;;;;;;5112143;28;20020;-52
2021/03/21 13:30:37;;;;;;;33.92;6.22;;;8.80;99.90;;;;;;5103931;28;20494;-54
2021/03/21 13:33:04;;;;;;;31.90;5.38;;;8.90;99.90;;;;;;5104863;28;20615;-53
2021/03/21 13:35:31;;;;;;;37.70;5.47;;;9.00;99.90;;;;;;5106556;28;20367;-50